createdAt,value
2018-02-25T00:00:03.632Z,1022.85
2018-02-25T00:00:41.783Z,1022.84
2018-02-25T00:01:17.011Z,1022.79
2018-02-25T00:01:52.125Z,1022.85
2018-02-25T00:02:27.783Z,1022.91
2018-02-25T00:03:03.893Z,1022.89
2018-02-25T00:03:39.238Z,1022.88
2018-02-25T00:04:14.749Z,1022.91
2018-02-25T00:04:55.761Z,1022.87
2018-02-25T00:05:30.783Z,1022.90
2018-02-25T00:06:05.871Z,1022.89
2018-02-25T00:06:41.397Z,1022.93
2018-02-25T00:07:16.611Z,1022.83
2018-02-25T00:07:51.939Z,1022.85
2018-02-25T00:08:27.174Z,1022.89
2018-02-25T00:09:02.100Z,1022.80
2018-02-25T00:09:37.518Z,1022.83
2018-02-25T00:10:12.807Z,1022.81
2018-02-25T00:10:51.056Z,1022.83
2018-02-25T00:11:26.972Z,1022.82
2018-02-25T00:12:02.474Z,1022.83
2018-02-25T00:12:37.916Z,1022.85
2018-02-25T00:13:13.342Z,1022.85
2018-02-25T00:13:48.681Z,1022.87
2018-02-25T00:14:24.322Z,1022.85
2018-02-25T00:14:59.606Z,1022.77
2018-02-25T00:15:35.017Z,1022.80
2018-02-25T00:16:10.344Z,1022.81
2018-02-25T00:16:46.561Z,1022.76
2018-02-25T00:17:21.977Z,1022.78
2018-02-25T00:17:57.198Z,1022.74
2018-02-25T00:18:32.563Z,1022.78
2018-02-25T00:19:07.898Z,1022.71
2018-02-25T00:19:43.059Z,1022.75
2018-02-25T00:20:18.589Z,1022.75
2018-02-25T00:20:53.947Z,1022.75
2018-02-25T00:21:29.505Z,1022.73
2018-02-25T00:22:04.811Z,1022.86
2018-02-25T00:22:40.265Z,1022.78
2018-02-25T00:23:15.597Z,1022.81
2018-02-25T00:23:50.932Z,1022.76
2018-02-25T00:24:26.376Z,1022.74
2018-02-25T00:25:01.622Z,1022.74
2018-02-25T00:25:39.338Z,1022.74
2018-02-25T00:26:14.455Z,1022.75
2018-02-25T00:26:49.867Z,1022.68
2018-02-25T00:27:25.415Z,1022.70
2018-02-25T00:28:00.608Z,1022.72
2018-02-25T00:28:35.929Z,1022.73
2018-02-25T00:29:11.138Z,1022.74
2018-02-25T00:29:46.876Z,1022.73
2018-02-25T00:30:22.379Z,1022.76
2018-02-25T00:30:58.371Z,1022.78
2018-02-25T00:31:33.693Z,1022.75
2018-02-25T00:32:09.105Z,1022.77
2018-02-25T00:32:44.653Z,1022.74
2018-02-25T00:33:19.823Z,1022.76
2018-02-25T00:33:55.227Z,1022.78
2018-02-25T00:34:30.571Z,1022.77
2018-02-25T00:35:05.970Z,1022.80
2018-02-25T00:35:45.938Z,1022.79
2018-02-25T00:36:21.144Z,1022.85
2018-02-25T00:36:56.453Z,1022.82
2018-02-25T00:37:31.910Z,1022.79
2018-02-25T00:38:07.017Z,1022.81
2018-02-25T00:38:43.294Z,1022.84
2018-02-25T00:39:18.525Z,1022.82
2018-02-25T00:39:54.151Z,1022.83
2018-02-25T00:40:29.803Z,1022.84
2018-02-25T00:41:05.446Z,1022.80
2018-02-25T00:41:40.611Z,1022.79
2018-02-25T00:42:16.009Z,1022.84
2018-02-25T00:42:51.409Z,1022.81
2018-02-25T00:43:26.913Z,1022.81
2018-02-25T00:44:01.949Z,1022.84
2018-02-25T00:44:37.380Z,1022.79
2018-02-25T00:45:12.694Z,1022.79
2018-02-25T00:45:48.213Z,1022.82
2018-02-25T00:46:23.976Z,1022.82
2018-02-25T00:46:59.407Z,1022.91
2018-02-25T00:47:34.768Z,1022.87
2018-02-25T00:48:10.363Z,1022.87
2018-02-25T00:48:45.680Z,1022.87
2018-02-25T00:49:21.103Z,1022.79
2018-02-25T00:49:56.409Z,1022.82
2018-02-25T00:50:32.163Z,1022.89
2018-02-25T00:51:07.291Z,1022.80
2018-02-25T00:51:42.736Z,1022.77
2018-02-25T00:52:18.251Z,1022.86
2018-02-25T00:52:53.560Z,1022.88
2018-02-25T00:53:28.926Z,1022.85
2018-02-25T00:54:04.255Z,1022.87
2018-02-25T00:54:39.573Z,1022.90
2018-02-25T00:55:14.772Z,1022.86
2018-02-25T00:55:50.718Z,1022.85
2018-02-25T00:56:26.023Z,1022.84
2018-02-25T00:57:01.241Z,1022.88
2018-02-25T00:57:36.776Z,1022.93
2018-02-25T00:58:11.788Z,1022.86
2018-02-25T00:58:47.203Z,1022.85
2018-02-25T00:59:22.419Z,1022.85
2018-02-25T00:59:57.726Z,1022.86
2018-02-25T01:00:33.092Z,1022.83
2018-02-25T01:01:08.805Z,1022.79
2018-02-25T01:01:44.167Z,1022.80
2018-02-25T01:02:19.517Z,1022.83
2018-02-25T01:02:54.981Z,1022.81
2018-02-25T01:03:30.645Z,1022.85
2018-02-25T01:04:05.854Z,1022.74
2018-02-25T01:04:41.195Z,1022.75
2018-02-25T01:05:16.305Z,1022.82
2018-02-25T01:05:51.530Z,1022.86
2018-02-25T01:06:27.168Z,1022.77
2018-02-25T01:07:02.665Z,1022.83
2018-02-25T01:07:38.139Z,1022.82
2018-02-25T01:08:13.684Z,1022.81
2018-02-25T01:08:49.129Z,1022.85
2018-02-25T01:09:24.681Z,1022.83
2018-02-25T01:10:00.011Z,1022.83
2018-02-25T01:10:35.348Z,1022.94
2018-02-25T01:11:10.546Z,1022.83
2018-02-25T01:11:45.975Z,1022.80
2018-02-25T01:12:21.218Z,1022.83
2018-02-25T01:12:56.580Z,1022.86
2018-02-25T01:13:32.116Z,1022.82
2018-02-25T01:14:07.715Z,1022.83
2018-02-25T01:14:42.738Z,1022.90
2018-02-25T01:15:18.198Z,1022.87
2018-02-25T01:15:55.026Z,1022.82
2018-02-25T01:16:30.277Z,1022.86
2018-02-25T01:17:05.479Z,1022.84
2018-02-25T01:17:41.123Z,1022.83
2018-02-25T01:18:16.450Z,1022.90
2018-02-25T01:18:51.908Z,1022.94
2018-02-25T01:19:27.325Z,1022.92
2018-02-25T01:20:02.632Z,1022.89
2018-02-25T01:20:38.584Z,1022.93
2018-02-25T01:21:14.009Z,1022.90
2018-02-25T01:21:49.364Z,1022.94
2018-02-25T01:22:24.794Z,1022.93
2018-02-25T01:23:00.209Z,1022.97
2018-02-25T01:23:35.776Z,1022.97
2018-02-25T01:24:10.999Z,1022.95
2018-02-25T01:24:46.914Z,1022.93
2018-02-25T01:25:22.445Z,1022.95
2018-02-25T01:25:58.079Z,1022.95
2018-02-25T01:26:33.530Z,1022.91
2018-02-25T01:27:09.045Z,1022.96
2018-02-25T01:27:44.489Z,1023.02
2018-02-25T01:28:20.250Z,1022.97
2018-02-25T01:28:56.340Z,1022.93
2018-02-25T01:29:31.656Z,1023.05
2018-02-25T01:30:06.978Z,1023.04
2018-02-25T01:30:45.144Z,1022.99
2018-02-25T01:31:20.673Z,1023.04
2018-02-25T01:31:55.958Z,1023.04
2018-02-25T01:32:31.800Z,1023.07
2018-02-25T01:33:07.014Z,1023.04
2018-02-25T01:33:42.660Z,1023.02
2018-02-25T01:34:18.699Z,1023.07
2018-02-25T01:34:53.850Z,1023.06
2018-02-25T01:35:29.177Z,1023.01
2018-02-25T01:36:04.517Z,1023.03
2018-02-25T01:36:40.463Z,1023.02
2018-02-25T01:37:16.107Z,1023.06
2018-02-25T01:37:51.328Z,1023.04
2018-02-25T01:38:26.792Z,1023.05
2018-02-25T01:39:01.771Z,1023.03
2018-02-25T01:39:37.552Z,1023.04
2018-02-25T01:40:12.777Z,1023.05
2018-02-25T01:40:48.412Z,1023.08
2018-02-25T01:41:24.058Z,1023.02
2018-02-25T01:41:59.450Z,1023.09
2018-02-25T01:42:35.186Z,1023.05
2018-02-25T01:43:10.404Z,1023.07
2018-02-25T01:43:47.232Z,1023.04
2018-02-25T01:44:22.487Z,1023.09
2018-02-25T01:44:58.231Z,1023.08
2018-02-25T01:45:33.676Z,1023.06
2018-02-25T01:46:09.169Z,1023.03
2018-02-25T01:46:44.390Z,1023.06
2018-02-25T01:47:19.940Z,1023.08
2018-02-25T01:47:55.711Z,1023.04
2018-02-25T01:48:31.208Z,1023.01
2018-02-25T01:49:06.557Z,1023.01
2018-02-25T01:49:43.218Z,1022.97
2018-02-25T01:50:18.473Z,1022.95
2018-02-25T01:50:57.115Z,1022.97
2018-02-25T01:51:32.187Z,1022.93
2018-02-25T01:52:07.503Z,1022.98
2018-02-25T01:52:42.658Z,1022.97
2018-02-25T01:53:17.892Z,1022.98
2018-02-25T01:53:53.153Z,1022.95
2018-02-25T01:54:28.633Z,1022.93
2018-02-25T01:55:04.455Z,1022.94
2018-02-25T01:55:40.409Z,1022.94
2018-02-25T01:56:15.737Z,1022.99
2018-02-25T01:56:51.006Z,1022.95
2018-02-25T01:57:26.530Z,1022.94
2018-02-25T01:58:02.125Z,1022.94
2018-02-25T01:58:38.062Z,1022.96
2018-02-25T01:59:13.377Z,1022.95
2018-02-25T01:59:48.746Z,1022.94
2018-02-25T02:00:24.112Z,1023.02
2018-02-25T02:01:00.322Z,1022.94
2018-02-25T02:01:35.837Z,1022.96
2018-02-25T02:02:11.033Z,1022.98
2018-02-25T02:02:46.475Z,1022.94
2018-02-25T02:03:21.754Z,1022.95
2018-02-25T02:03:57.051Z,1022.95
2018-02-25T02:04:32.424Z,1022.94
2018-02-25T02:05:08.052Z,1022.90
2018-02-25T02:05:43.231Z,1022.89
2018-02-25T02:06:18.863Z,1022.89
2018-02-25T02:06:54.284Z,1022.91
2018-02-25T02:07:29.529Z,1022.88
2018-02-25T02:08:04.743Z,1022.88
2018-02-25T02:08:40.328Z,1022.85
2018-02-25T02:09:15.746Z,1022.89
2018-02-25T02:09:54.291Z,1022.85
2018-02-25T02:10:29.454Z,1022.90
2018-02-25T02:11:04.972Z,1022.89
2018-02-25T02:11:41.111Z,1022.82
2018-02-25T02:12:16.744Z,1022.91
2018-02-25T02:12:52.173Z,1022.90
2018-02-25T02:13:27.513Z,1022.88
2018-02-25T02:14:02.941Z,1022.87
2018-02-25T02:14:38.587Z,1022.86
2018-02-25T02:15:13.856Z,1022.89
2018-02-25T02:15:52.906Z,1022.83
2018-02-25T02:16:28.324Z,1022.85
2018-02-25T02:17:03.862Z,1022.83
2018-02-25T02:17:39.787Z,1022.85
2018-02-25T02:18:15.205Z,1022.82
2018-02-25T02:18:50.535Z,1022.95
2018-02-25T02:19:26.079Z,1022.89
2018-02-25T02:20:01.589Z,1022.85
2018-02-25T02:20:37.830Z,1022.85
2018-02-25T02:21:13.350Z,1022.87
2018-02-25T02:21:48.694Z,1022.81
2018-02-25T02:22:23.926Z,1022.90
2018-02-25T02:22:59.420Z,1022.84
2018-02-25T02:23:34.854Z,1022.81
2018-02-25T02:24:10.379Z,1022.83
2018-02-25T02:24:45.808Z,1022.82
2018-02-25T02:25:21.560Z,1022.85
2018-02-25T02:25:58.188Z,1022.81
2018-02-25T02:26:33.484Z,1022.84
2018-02-25T02:27:08.581Z,1022.87
2018-02-25T02:27:44.212Z,1022.82
2018-02-25T02:28:19.445Z,1022.88
2018-02-25T02:28:54.767Z,1022.91
2018-02-25T02:29:30.004Z,1022.83
2018-02-25T02:30:05.148Z,1022.84
2018-02-25T02:30:43.705Z,1022.84
2018-02-25T02:31:19.330Z,1022.87
2018-02-25T02:31:54.648Z,1022.86
2018-02-25T02:32:30.187Z,1022.82
2018-02-25T02:33:05.285Z,1022.81
2018-02-25T02:33:41.438Z,1022.81
2018-02-25T02:34:18.941Z,1022.92
2018-02-25T02:34:54.257Z,1022.87
2018-02-25T02:35:29.772Z,1022.87
2018-02-25T02:36:05.339Z,1022.89
2018-02-25T02:36:41.317Z,1022.87
2018-02-25T02:37:16.844Z,1022.84
2018-02-25T02:37:52.498Z,1022.85
2018-02-25T02:38:27.744Z,1022.86
2018-02-25T02:39:02.842Z,1022.84
2018-02-25T02:39:38.485Z,1022.89
2018-02-25T02:40:13.708Z,1022.87
2018-02-25T02:40:50.607Z,1022.87
2018-02-25T02:41:26.048Z,1022.81
2018-02-25T02:42:01.555Z,1022.86
2018-02-25T02:42:37.089Z,1022.85
2018-02-25T02:43:12.514Z,1022.89
2018-02-25T02:43:47.647Z,1022.92
2018-02-25T02:44:22.881Z,1022.83
2018-02-25T02:45:01.203Z,1022.89
2018-02-25T02:45:37.827Z,1022.91
2018-02-25T02:46:13.255Z,1022.81
2018-02-25T02:46:48.689Z,1022.83
2018-02-25T02:47:24.051Z,1022.81
2018-02-25T02:47:59.402Z,1022.89
2018-02-25T02:48:34.754Z,1022.84
2018-02-25T02:49:10.451Z,1022.87
2018-02-25T02:49:45.979Z,1022.88
2018-02-25T02:50:21.353Z,1022.88
2018-02-25T02:50:56.650Z,1022.87
2018-02-25T02:51:32.568Z,1022.89
2018-02-25T02:52:07.946Z,1022.90
2018-02-25T02:52:43.813Z,1022.89
2018-02-25T02:53:19.440Z,1022.89
2018-02-25T02:53:54.756Z,1022.93
2018-02-25T02:54:30.080Z,1022.93
2018-02-25T02:55:05.600Z,1022.95
2018-02-25T02:55:44.160Z,1022.97
2018-02-25T02:56:19.506Z,1022.97
2018-02-25T02:56:55.041Z,1022.91
2018-02-25T02:57:30.477Z,1023.01
2018-02-25T02:58:05.692Z,1022.96
2018-02-25T02:58:41.240Z,1023.00
2018-02-25T02:59:16.340Z,1022.98
2018-02-25T02:59:52.172Z,1022.98
2018-02-25T03:00:27.898Z,1022.97
2018-02-25T03:01:04.037Z,1023.01
2018-02-25T03:01:39.814Z,1023.05
2018-02-25T03:02:15.342Z,1023.07
2018-02-25T03:02:50.783Z,1023.05
2018-02-25T03:03:25.989Z,1023.06
2018-02-25T03:04:01.389Z,1023.05
2018-02-25T03:04:36.877Z,1023.07
2018-02-25T03:05:12.290Z,1023.05
2018-02-25T03:05:49.528Z,1023.10
2018-02-25T03:06:24.790Z,1023.13
2018-02-25T03:07:00.077Z,1023.11
2018-02-25T03:07:35.753Z,1023.16
2018-02-25T03:08:10.935Z,1023.13
2018-02-25T03:08:46.469Z,1023.17
2018-02-25T03:09:21.910Z,1023.11
2018-02-25T03:09:57.328Z,1023.11
2018-02-25T03:10:32.746Z,1023.13
2018-02-25T03:11:08.087Z,1023.12
2018-02-25T03:11:43.420Z,1023.11
2018-02-25T03:12:18.901Z,1023.14
2018-02-25T03:12:54.229Z,1023.15
2018-02-25T03:13:29.689Z,1023.13
2018-02-25T03:14:05.241Z,1023.12
2018-02-25T03:14:40.989Z,1023.14
2018-02-25T03:15:17.202Z,1023.18
2018-02-25T03:15:52.826Z,1023.16
2018-02-25T03:16:28.072Z,1023.20
2018-02-25T03:17:03.377Z,1023.17
2018-02-25T03:17:39.057Z,1023.18
2018-02-25T03:18:14.269Z,1023.18
2018-02-25T03:18:49.717Z,1023.20
2018-02-25T03:19:24.976Z,1023.23
2018-02-25T03:20:00.190Z,1023.21
2018-02-25T03:20:35.730Z,1023.19
2018-02-25T03:21:11.233Z,1023.24
2018-02-25T03:21:46.588Z,1023.23
2018-02-25T03:22:21.913Z,1023.23
2018-02-25T03:22:57.242Z,1023.26
2018-02-25T03:23:32.567Z,1023.25
2018-02-25T03:24:07.999Z,1023.23
2018-02-25T03:24:43.437Z,1023.25
2018-02-25T03:25:18.742Z,1023.28
2018-02-25T03:25:54.359Z,1023.24
2018-02-25T03:26:29.604Z,1023.23
2018-02-25T03:27:05.107Z,1023.27
2018-02-25T03:27:40.953Z,1023.24
2018-02-25T03:28:16.049Z,1023.27
2018-02-25T03:28:51.579Z,1023.26
2018-02-25T03:29:27.019Z,1023.31
2018-02-25T03:30:02.213Z,1023.33
2018-02-25T03:30:37.941Z,1023.29
2018-02-25T03:31:13.427Z,1023.32
2018-02-25T03:31:48.476Z,1023.36
2018-02-25T03:32:23.829Z,1023.34
2018-02-25T03:32:59.126Z,1023.37
2018-02-25T03:33:34.547Z,1023.36
2018-02-25T03:34:09.950Z,1023.35
2018-02-25T03:34:45.341Z,1023.36
2018-02-25T03:35:20.775Z,1023.36
2018-02-25T03:35:56.318Z,1023.37
2018-02-25T03:36:31.660Z,1023.39
2018-02-25T03:37:07.171Z,1023.35
2018-02-25T03:37:42.718Z,1023.42
2018-02-25T03:38:17.937Z,1023.37
2018-02-25T03:38:53.187Z,1023.37
2018-02-25T03:39:28.493Z,1023.39
2018-02-25T03:40:03.925Z,1023.39
2018-02-25T03:40:39.873Z,1023.42
2018-02-25T03:41:15.291Z,1023.37
2018-02-25T03:41:50.636Z,1023.41
2018-02-25T03:42:26.067Z,1023.41
2018-02-25T03:43:01.492Z,1023.43
2018-02-25T03:43:36.714Z,1023.45
2018-02-25T03:44:12.156Z,1023.42
2018-02-25T03:44:47.408Z,1023.40
2018-02-25T03:45:22.647Z,1023.41
2018-02-25T03:45:58.135Z,1023.44
2018-02-25T03:46:33.212Z,1023.43
2018-02-25T03:47:08.392Z,1023.43
2018-02-25T03:47:43.844Z,1023.42
2018-02-25T03:48:19.198Z,1023.42
2018-02-25T03:48:54.414Z,1023.44
2018-02-25T03:49:29.676Z,1023.47
2018-02-25T03:50:05.345Z,1023.47
2018-02-25T03:50:41.901Z,1023.46
2018-02-25T03:51:17.213Z,1023.45
2018-02-25T03:51:52.257Z,1023.44
2018-02-25T03:52:27.764Z,1023.45
2018-02-25T03:53:03.163Z,1023.46
2018-02-25T03:53:38.290Z,1023.45
2018-02-25T03:54:13.495Z,1023.47
2018-02-25T03:54:49.074Z,1023.51
2018-02-25T03:55:24.409Z,1023.48
2018-02-25T03:56:00.235Z,1023.52
2018-02-25T03:56:35.610Z,1023.50
2018-02-25T03:57:11.200Z,1023.51
2018-02-25T03:57:47.705Z,1023.50
2018-02-25T03:58:22.936Z,1023.54
2018-02-25T03:58:58.141Z,1023.48
2018-02-25T03:59:33.344Z,1023.52
2018-02-25T04:00:08.976Z,1023.53
2018-02-25T04:00:46.820Z,1023.57
2018-02-25T04:01:22.320Z,1023.60
2018-02-25T04:01:57.759Z,1023.59
2018-02-25T04:02:33.094Z,1023.53
2018-02-25T04:03:08.473Z,1023.59
2018-02-25T04:03:43.806Z,1023.59
2018-02-25T04:04:18.924Z,1023.59
2018-02-25T04:04:55.725Z,1023.59
2018-02-25T04:05:31.664Z,1023.62
2018-02-25T04:06:08.777Z,1023.59
2018-02-25T04:06:44.617Z,1023.59
2018-02-25T04:07:19.889Z,1023.64
2018-02-25T04:07:55.525Z,1023.60
2018-02-25T04:08:30.957Z,1023.61
2018-02-25T04:09:06.347Z,1023.70
2018-02-25T04:09:42.786Z,1023.64
2018-02-25T04:10:18.066Z,1023.68
2018-02-25T04:10:53.918Z,1023.65
2018-02-25T04:11:29.170Z,1023.64
2018-02-25T04:12:04.405Z,1023.67
2018-02-25T04:12:39.456Z,1023.68
2018-02-25T04:13:14.442Z,1023.63
2018-02-25T04:13:49.895Z,1023.70
2018-02-25T04:14:25.422Z,1023.69
2018-02-25T04:15:00.620Z,1023.71
2018-02-25T04:15:36.358Z,1023.67
2018-02-25T04:16:11.849Z,1023.70
2018-02-25T04:16:47.299Z,1023.67
2018-02-25T04:17:23.625Z,1023.68
2018-02-25T04:17:58.829Z,1023.66
2018-02-25T04:18:34.358Z,1023.69
2018-02-25T04:19:09.645Z,1023.71
2018-02-25T04:19:45.067Z,1023.71
2018-02-25T04:20:20.311Z,1023.72
2018-02-25T04:20:55.808Z,1023.74
2018-02-25T04:21:31.468Z,1023.75
2018-02-25T04:22:06.834Z,1023.77
2018-02-25T04:22:42.458Z,1023.74
2018-02-25T04:23:17.968Z,1023.78
2018-02-25T04:23:53.284Z,1023.77
2018-02-25T04:24:28.434Z,1023.78
2018-02-25T04:25:03.623Z,1023.76
2018-02-25T04:25:39.762Z,1023.76
2018-02-25T04:26:15.080Z,1023.82
2018-02-25T04:26:50.486Z,1023.78
2018-02-25T04:27:25.737Z,1023.82
2018-02-25T04:28:01.243Z,1023.76
2018-02-25T04:28:36.720Z,1023.79
2018-02-25T04:29:12.051Z,1023.73
2018-02-25T04:29:47.069Z,1023.71
2018-02-25T04:30:22.526Z,1023.70
2018-02-25T04:30:57.945Z,1023.72
2018-02-25T04:31:33.392Z,1023.73
2018-02-25T04:32:08.823Z,1023.72
2018-02-25T04:32:44.259Z,1023.73
2018-02-25T04:33:19.431Z,1023.76
2018-02-25T04:33:54.359Z,1023.70
2018-02-25T04:34:29.861Z,1023.77
2018-02-25T04:35:05.391Z,1023.74
2018-02-25T04:35:42.228Z,1023.72
2018-02-25T04:36:17.844Z,1023.75
2018-02-25T04:36:53.559Z,1023.72
2018-02-25T04:37:28.738Z,1023.67
2018-02-25T04:38:03.989Z,1023.67
2018-02-25T04:38:39.392Z,1023.70
2018-02-25T04:39:14.722Z,1023.68
2018-02-25T04:39:49.973Z,1023.69
2018-02-25T04:40:25.289Z,1023.68
2018-02-25T04:41:01.914Z,1023.70
2018-02-25T04:41:38.540Z,1023.69
2018-02-25T04:42:13.970Z,1023.72
2018-02-25T04:42:49.206Z,1023.69
2018-02-25T04:43:25.032Z,1023.72
2018-02-25T04:44:00.421Z,1023.67
2018-02-25T04:44:35.663Z,1023.69
2018-02-25T04:45:10.871Z,1023.68
2018-02-25T04:45:47.608Z,1023.68
2018-02-25T04:46:22.974Z,1023.68
2018-02-25T04:46:58.308Z,1023.67
2018-02-25T04:47:33.658Z,1023.65
2018-02-25T04:48:08.943Z,1023.65
2018-02-25T04:48:44.469Z,1023.64
2018-02-25T04:49:19.712Z,1023.61
2018-02-25T04:49:55.306Z,1023.61
2018-02-25T04:50:30.868Z,1023.64
2018-02-25T04:51:06.310Z,1023.62
2018-02-25T04:51:41.480Z,1023.62
2018-02-25T04:52:16.705Z,1023.66
2018-02-25T04:52:52.224Z,1023.61
2018-02-25T04:53:27.347Z,1023.60
2018-02-25T04:54:02.822Z,1023.61
2018-02-25T04:54:38.438Z,1023.64
2018-02-25T04:55:13.834Z,1023.63
2018-02-25T04:55:49.162Z,1023.63
2018-02-25T04:56:24.285Z,1023.57
2018-02-25T04:56:59.781Z,1023.57
2018-02-25T04:57:35.244Z,1023.59
2018-02-25T04:58:10.530Z,1023.59
2018-02-25T04:58:46.063Z,1023.57
2018-02-25T04:59:21.400Z,1023.54
2018-02-25T04:59:56.898Z,1023.54
2018-02-25T05:00:32.411Z,1023.54
2018-02-25T05:01:08.581Z,1023.53
2018-02-25T05:01:43.599Z,1023.57
2018-02-25T05:02:19.104Z,1023.52
2018-02-25T05:02:54.667Z,1023.61
2018-02-25T05:03:29.716Z,1023.58
2018-02-25T05:04:05.626Z,1023.59
2018-02-25T05:04:41.249Z,1023.57
2018-02-25T05:05:16.554Z,1023.65
2018-02-25T05:05:52.126Z,1023.59
2018-02-25T05:06:27.754Z,1023.57
2018-02-25T05:07:02.879Z,1023.57
2018-02-25T05:07:37.930Z,1023.60
2018-02-25T05:08:13.573Z,1023.58
2018-02-25T05:08:49.086Z,1023.56
2018-02-25T05:09:24.301Z,1023.59
2018-02-25T05:09:59.680Z,1023.57
2018-02-25T05:10:35.219Z,1023.59
2018-02-25T05:11:10.655Z,1023.60
2018-02-25T05:11:45.987Z,1023.63
2018-02-25T05:12:21.321Z,1023.56
2018-02-25T05:12:57.547Z,1023.61
2018-02-25T05:13:33.110Z,1023.62
2018-02-25T05:14:08.512Z,1023.61
2018-02-25T05:14:43.822Z,1023.63
2018-02-25T05:15:19.444Z,1023.67
2018-02-25T05:15:55.475Z,1023.61
2018-02-25T05:16:30.709Z,1023.65
2018-02-25T05:17:06.093Z,1023.66
2018-02-25T05:17:41.555Z,1023.68
2018-02-25T05:18:16.977Z,1023.68
2018-02-25T05:18:52.308Z,1023.62
2018-02-25T05:19:27.672Z,1023.65
2018-02-25T05:20:02.898Z,1023.66
2018-02-25T05:20:39.127Z,1023.68
2018-02-25T05:21:14.505Z,1023.67
2018-02-25T05:21:50.144Z,1023.64
2018-02-25T05:22:25.778Z,1023.64
2018-02-25T05:23:00.997Z,1023.62
2018-02-25T05:23:36.281Z,1023.66
2018-02-25T05:24:11.610Z,1023.70
2018-02-25T05:24:49.417Z,1023.70
2018-02-25T05:25:24.843Z,1023.68
2018-02-25T05:26:00.249Z,1023.68
2018-02-25T05:26:36.082Z,1023.65
2018-02-25T05:27:11.369Z,1023.69
2018-02-25T05:27:47.491Z,1023.65
2018-02-25T05:28:22.796Z,1023.64
2018-02-25T05:28:58.177Z,1023.68
2018-02-25T05:29:33.383Z,1023.67
2018-02-25T05:30:08.565Z,1023.63
2018-02-25T05:30:45.205Z,1023.71
2018-02-25T05:31:20.551Z,1023.66
2018-02-25T05:31:55.673Z,1023.68
2018-02-25T05:32:31.002Z,1023.70
2018-02-25T05:33:06.340Z,1023.67
2018-02-25T05:33:42.164Z,1023.66
2018-02-25T05:34:17.872Z,1023.68
2018-02-25T05:34:53.141Z,1023.65
2018-02-25T05:35:28.560Z,1023.65
2018-02-25T05:36:03.772Z,1023.68
2018-02-25T05:36:39.395Z,1023.68
2018-02-25T05:37:15.074Z,1023.67
2018-02-25T05:37:50.524Z,1023.69
2018-02-25T05:38:25.768Z,1023.67
2018-02-25T05:39:01.245Z,1023.68
2018-02-25T05:39:36.685Z,1023.68
2018-02-25T05:40:12.095Z,1023.65
2018-02-25T05:40:49.020Z,1023.72
2018-02-25T05:41:24.660Z,1023.68
2018-02-25T05:42:00.367Z,1023.63
2018-02-25T05:42:35.897Z,1023.63
2018-02-25T05:43:11.014Z,1023.64
2018-02-25T05:43:46.323Z,1023.68
2018-02-25T05:44:21.674Z,1023.62
2018-02-25T05:44:57.068Z,1023.67
2018-02-25T05:45:32.367Z,1023.63
2018-02-25T05:46:08.067Z,1023.61
2018-02-25T05:46:44.682Z,1023.67
2018-02-25T05:47:20.410Z,1023.65
2018-02-25T05:47:55.720Z,1023.68
2018-02-25T05:48:30.978Z,1023.70
2018-02-25T05:49:06.473Z,1023.65
2018-02-25T05:49:43.088Z,1023.74
2018-02-25T05:50:18.395Z,1023.77
2018-02-25T05:50:54.827Z,1023.72
2018-02-25T05:51:30.018Z,1023.73
2018-02-25T05:52:05.714Z,1023.74
2018-02-25T05:52:41.328Z,1023.80
2018-02-25T05:53:16.646Z,1023.81
2018-02-25T05:53:52.185Z,1023.78
2018-02-25T05:54:27.494Z,1023.80
2018-02-25T05:55:02.564Z,1023.79
2018-02-25T05:55:38.312Z,1023.77
2018-02-25T05:56:13.395Z,1023.78
2018-02-25T05:56:49.511Z,1023.75
2018-02-25T05:57:25.043Z,1023.78
2018-02-25T05:58:00.229Z,1023.80
2018-02-25T05:58:35.380Z,1023.79
2018-02-25T05:59:10.691Z,1023.82
2018-02-25T05:59:46.216Z,1023.82
2018-02-25T06:00:21.460Z,1023.84
2018-02-25T06:00:58.357Z,1023.81
2018-02-25T06:01:33.658Z,1023.82
2018-02-25T06:02:09.038Z,1023.87
2018-02-25T06:02:44.684Z,1023.85
2018-02-25T06:03:20.008Z,1023.84
2018-02-25T06:03:55.400Z,1023.87
2018-02-25T06:04:30.788Z,1023.86
2018-02-25T06:05:06.575Z,1023.86
2018-02-25T06:05:45.210Z,1023.84
2018-02-25T06:06:20.671Z,1023.86
2018-02-25T06:06:56.120Z,1023.86
2018-02-25T06:07:31.528Z,1023.90
2018-02-25T06:08:07.143Z,1023.94
2018-02-25T06:08:42.420Z,1023.95
2018-02-25T06:09:20.859Z,1023.94
2018-02-25T06:09:56.463Z,1023.93
2018-02-25T06:10:31.920Z,1023.95
2018-02-25T06:11:07.041Z,1023.93
2018-02-25T06:11:46.675Z,1023.94
2018-02-25T06:12:22.231Z,1023.95
2018-02-25T06:12:57.529Z,1023.93
2018-02-25T06:13:32.765Z,1023.95
2018-02-25T06:14:08.395Z,1023.93
2018-02-25T06:14:44.738Z,1023.93
2018-02-25T06:15:19.984Z,1023.95
2018-02-25T06:15:56.796Z,1023.93
2018-02-25T06:16:32.599Z,1023.95
2018-02-25T06:17:08.025Z,1023.96
2018-02-25T06:17:43.438Z,1023.99
2018-02-25T06:18:19.064Z,1024.01
2018-02-25T06:18:54.336Z,1023.99
2018-02-25T06:19:29.766Z,1023.99
2018-02-25T06:20:05.470Z,1024.03
2018-02-25T06:20:42.111Z,1024.00
2018-02-25T06:21:17.501Z,1024.01
2018-02-25T06:21:52.944Z,1024.02
2018-02-25T06:22:28.211Z,1024.04
2018-02-25T06:23:03.596Z,1024.02
2018-02-25T06:23:39.226Z,1024.00
2018-02-25T06:24:14.665Z,1024.02
2018-02-25T06:24:49.935Z,1024.01
2018-02-25T06:25:26.487Z,1024.04
2018-02-25T06:26:01.804Z,1024.03
2018-02-25T06:26:37.412Z,1023.99
2018-02-25T06:27:12.903Z,1024.06
2018-02-25T06:27:50.269Z,1024.02
2018-02-25T06:28:26.220Z,1024.04
2018-02-25T06:29:01.842Z,1024.04
2018-02-25T06:29:37.226Z,1024.06
2018-02-25T06:30:12.420Z,1024.03
2018-02-25T06:30:48.474Z,1024.04
2018-02-25T06:31:23.807Z,1024.10
2018-02-25T06:31:59.212Z,1024.06
2018-02-25T06:32:34.684Z,1024.08
2018-02-25T06:33:09.801Z,1024.04
2018-02-25T06:33:45.943Z,1024.06
2018-02-25T06:34:21.620Z,1024.04
2018-02-25T06:34:56.839Z,1024.05
2018-02-25T06:35:32.353Z,1024.02
2018-02-25T06:36:07.562Z,1024.05
2018-02-25T06:36:43.774Z,1024.07
2018-02-25T06:37:19.281Z,1024.06
2018-02-25T06:37:54.490Z,1024.03
2018-02-25T06:38:29.827Z,1024.00
2018-02-25T06:39:05.117Z,1024.04
2018-02-25T06:39:40.352Z,1024.05
2018-02-25T06:40:15.419Z,1024.04
2018-02-25T06:40:50.692Z,1024.09
2018-02-25T06:41:26.328Z,1024.08
2018-02-25T06:42:01.631Z,1024.12
2018-02-25T06:42:37.247Z,1024.06
2018-02-25T06:43:12.560Z,1024.10
2018-02-25T06:43:51.003Z,1024.10
2018-02-25T06:44:28.636Z,1024.11
2018-02-25T06:45:04.210Z,1024.09
2018-02-25T06:45:44.242Z,1024.07
2018-02-25T06:46:19.571Z,1024.13
2018-02-25T06:46:54.968Z,1024.06
2018-02-25T06:47:30.383Z,1024.08
2018-02-25T06:48:05.587Z,1024.10
2018-02-25T06:48:40.758Z,1024.07
2018-02-25T06:49:16.058Z,1024.09
2018-02-25T06:49:51.603Z,1024.09
2018-02-25T06:50:26.927Z,1024.08
2018-02-25T06:51:02.309Z,1024.14
2018-02-25T06:51:38.099Z,1024.09
2018-02-25T06:52:13.500Z,1024.14
2018-02-25T06:52:48.621Z,1024.14
2018-02-25T06:53:30.627Z,1024.14
2018-02-25T06:54:08.039Z,1024.14
2018-02-25T06:54:43.146Z,1024.12
2018-02-25T06:55:18.555Z,1024.11
2018-02-25T06:55:53.873Z,1024.16
2018-02-25T06:56:29.175Z,1024.13
2018-02-25T06:57:04.365Z,1024.11
2018-02-25T06:57:39.982Z,1024.16
2018-02-25T06:58:15.254Z,1024.15
2018-02-25T06:58:50.696Z,1024.14
2018-02-25T06:59:26.120Z,1024.18
2018-02-25T07:00:01.292Z,1024.16
2018-02-25T07:00:38.536Z,1024.13
2018-02-25T07:01:14.614Z,1024.16
2018-02-25T07:01:49.937Z,1024.11
2018-02-25T07:02:25.258Z,1024.14
2018-02-25T07:03:00.439Z,1024.14
2018-02-25T07:03:35.657Z,1024.17
2018-02-25T07:04:10.777Z,1024.19
2018-02-25T07:04:47.482Z,1024.16
2018-02-25T07:05:22.703Z,1024.17
2018-02-25T07:05:58.597Z,1024.12
2018-02-25T07:06:34.037Z,1024.17
2018-02-25T07:07:09.542Z,1024.17
2018-02-25T07:07:44.986Z,1024.20
2018-02-25T07:08:20.506Z,1024.20
2018-02-25T07:08:55.634Z,1024.23
2018-02-25T07:09:30.853Z,1024.24
2018-02-25T07:10:06.155Z,1024.20